createdAt,value
2023-01-13T00:00:05.318Z,99789.38
2023-01-13T00:02:32.975Z,99790.25
2023-01-13T00:04:59.596Z,99781.59
2023-01-13T00:07:26.186Z,99787.66
2023-01-13T00:09:52.728Z,99784.22
2023-01-13T00:12:19.299Z,99786.84
2023-01-13T00:14:45.974Z,99783.34
2023-01-13T00:17:12.541Z,99779.88
2023-01-13T00:19:39.146Z,99772.97
2023-01-13T00:22:06.575Z,99780.81
2023-01-13T00:24:33.184Z,99777.34
2023-01-13T00:26:59.716Z,99771.31
2023-01-13T00:29:26.266Z,99777.41
2023-01-13T00:31:52.867Z,99779.16
2023-01-13T00:34:19.413Z,99779.19
2023-01-13T00:36:45.964Z,99772.25
2023-01-13T00:39:12.567Z,99771.31
2023-01-13T00:41:57.784Z,99763.63
2023-01-13T00:44:24.338Z,99762.81
2023-01-13T00:46:50.975Z,99758.44
2023-01-13T00:49:17.649Z,99755.84
2023-01-13T00:51:44.215Z,99755.91
2023-01-13T00:54:10.803Z,99755.91
2023-01-13T00:56:40.573Z,99755.91
2023-01-13T00:59:10.431Z,99755.03
2023-01-13T01:01:37.105Z,99755.88
2023-01-13T01:04:03.818Z,99761.13
2023-01-13T01:06:30.374Z,99757.63
2023-01-13T01:08:57.079Z,99761.06
2023-01-13T01:11:28.681Z,99755.88
2023-01-13T01:13:56.947Z,99751.56
2023-01-13T01:16:25.577Z,99753.31
2023-01-13T01:18:53.158Z,99752.44
2023-01-13T01:21:20.950Z,99755.81
2023-01-13T01:23:47.516Z,99741.88
2023-01-13T01:26:16.213Z,99750.47
2023-01-13T01:28:43.641Z,99741.81
2023-01-13T01:31:18.806Z,99742.66
2023-01-13T01:33:47.578Z,99745.25
2023-01-13T01:36:16.032Z,99746.09
2023-01-13T01:38:42.756Z,99748.63
2023-01-13T01:41:13.352Z,99757.31
2023-01-13T01:44:02.780Z,99754.72
2023-01-13T01:46:44.041Z,99754.69
2023-01-13T01:49:24.783Z,99758.91
2023-01-13T01:52:12.763Z,99746.78
2023-01-13T01:54:52.225Z,99741.59
2023-01-13T01:57:24.770Z,99745.94
2023-01-13T01:59:51.351Z,99737.19
2023-01-13T02:02:18.064Z,99751.97
2023-01-13T02:04:53.190Z,99746.66
2023-01-13T02:07:21.386Z,99742.38
2023-01-13T02:09:48.350Z,99741.50
2023-01-13T02:12:32.078Z,99727.66
2023-01-13T02:15:01.812Z,99723.34
2023-01-13T02:17:52.697Z,99726.72
2023-01-13T02:20:32.897Z,99725.00
2023-01-13T02:23:02.406Z,99719.78
2023-01-13T02:25:55.799Z,99719.84
2023-01-13T02:29:00.783Z,99716.34
2023-01-13T02:31:43.479Z,99725.00
2023-01-13T02:34:26.458Z,99722.44
2023-01-13T02:37:03.979Z,99729.34
2023-01-13T02:39:36.242Z,99725.84
2023-01-13T02:42:23.999Z,99718.13
2023-01-13T02:44:55.752Z,99715.56
2023-01-13T02:47:25.562Z,99710.41
2023-01-13T02:49:59.185Z,99714.72
2023-01-13T02:52:33.432Z,99715.63
2023-01-13T02:55:06.876Z,99713.88
2023-01-13T02:57:34.145Z,99725.97
2023-01-13T03:00:01.788Z,99736.41
2023-01-13T03:02:28.252Z,99722.59
2023-01-13T03:04:59.726Z,99724.34
2023-01-13T03:08:04.623Z,99723.56
2023-01-13T03:11:07.776Z,99724.41
2023-01-13T03:13:59.544Z,99723.53
2023-01-13T03:16:46.736Z,99732.09
2023-01-13T03:19:31.421Z,99718.19
2023-01-13T03:22:03.781Z,99724.25
2023-01-13T03:24:35.349Z,99711.28
2023-01-13T03:27:06.631Z,99708.72
2023-01-13T03:29:40.664Z,99710.47
2023-01-13T03:32:29.384Z,99694.06
2023-01-13T03:35:01.976Z,99699.25
2023-01-13T03:37:36.093Z,99705.28
2023-01-13T03:40:10.932Z,99710.47
2023-01-13T03:42:38.067Z,99687.97
2023-01-13T03:45:12.005Z,99696.59
2023-01-13T03:47:51.772Z,99706.13
2023-01-13T03:50:22.362Z,99713.06
2023-01-13T03:52:53.246Z,99721.69
2023-01-13T03:55:23.145Z,99715.59
2023-01-13T03:57:57.423Z,99720.78
2023-01-13T04:00:28.045Z,99720.81
2023-01-13T04:03:23.289Z,99730.28
2023-01-13T04:05:53.011Z,99727.69
2023-01-13T04:08:25.052Z,99731.13
2023-01-13T04:11:06.667Z,99725.91
2023-01-13T04:13:37.615Z,99722.41
2023-01-13T04:16:06.540Z,99726.63
2023-01-13T04:18:33.092Z,99724.88
2023-01-13T04:21:01.167Z,99719.66
2023-01-13T04:23:28.531Z,99719.69
2023-01-13T04:25:55.101Z,99722.28
2023-01-13T04:28:21.736Z,99732.75
2023-01-13T04:30:48.471Z,99733.63
2023-01-13T04:33:17.231Z,99730.19
2023-01-13T04:35:44.530Z,99734.50
2023-01-13T04:38:13.896Z,99747.47
2023-01-13T04:40:41.188Z,99750.09
2023-01-13T04:43:09.066Z,99736.31
2023-01-13T04:45:35.504Z,99738.06
2023-01-13T04:48:01.929Z,99750.09
2023-01-13T04:50:29.327Z,99751.81
2023-01-13T04:52:56.258Z,99746.53
2023-01-13T04:55:23.869Z,99737.94
2023-01-13T04:57:50.297Z,99729.22
2023-01-13T05:00:18.679Z,99746.53
2023-01-13T05:02:45.112Z,99745.75
2023-01-13T05:05:11.590Z,99731.91
2023-01-13T05:07:38.204Z,99720.69
2023-01-13T05:10:05.134Z,99719.84
2023-01-13T05:12:50.158Z,99717.31
2023-01-13T05:15:35.157Z,99727.69
2023-01-13T05:18:01.943Z,99731.06
2023-01-13T05:20:28.397Z,99733.63
2023-01-13T05:23:13.416Z,99732.69
2023-01-13T05:25:43.436Z,99727.56
2023-01-13T05:28:10.600Z,99734.44
2023-01-13T05:30:42.388Z,99719.78
2023-01-13T05:33:14.614Z,99714.63
2023-01-13T05:35:42.690Z,99750.84
2023-01-13T05:38:09.634Z,99747.47
2023-01-13T05:40:58.161Z,99739.59
2023-01-13T05:43:26.104Z,99729.16
2023-01-13T05:46:04.395Z,99722.22
2023-01-13T05:48:34.800Z,99730.78
2023-01-13T05:51:02.594Z,99734.22
2023-01-13T05:53:29.591Z,99731.56
2023-01-13T05:55:56.121Z,99758.25
2023-01-13T05:58:25.598Z,99740.97
2023-01-13T06:00:52.506Z,99715.88
2023-01-13T06:03:20.196Z,99749.56
2023-01-13T06:05:47.225Z,99753.84
2023-01-13T06:08:13.782Z,99758.13
2023-01-13T06:10:40.225Z,99758.09
2023-01-13T06:13:07.217Z,99751.06
2023-01-13T06:15:33.645Z,99759.59
2023-01-13T06:18:02.892Z,99754.34
2023-01-13T06:20:29.453Z,99762.03
2023-01-13T06:22:55.916Z,99752.44
2023-01-13T06:25:28.536Z,99755.84
2023-01-13T06:27:56.605Z,99742.88
2023-01-13T06:30:23.116Z,99748.72
2023-01-13T06:32:53.084Z,99751.19
2023-01-13T06:35:24.289Z,99754.63
2023-01-13T06:37:53.770Z,99748.44
2023-01-13T06:40:22.442Z,99754.41
2023-01-13T06:43:07.462Z,99766.41
2023-01-13T06:45:34.643Z,99758.53
2023-01-13T06:48:01.672Z,99770.44
2023-01-13T06:50:28.877Z,99771.25
2023-01-13T06:52:55.314Z,99765.97
2023-01-13T06:55:21.775Z,99760.69
2023-01-13T06:57:49.873Z,99770.84
2023-01-13T07:00:16.460Z,99785.44
2023-01-13T07:02:43.065Z,99793.06
2023-01-13T07:05:09.753Z,99795.47
2023-01-13T07:07:36.165Z,99797.16
2023-01-13T07:10:03.344Z,99807.38
2023-01-13T07:12:29.831Z,99809.91
2023-01-13T07:15:15.070Z,99809.84
2023-01-13T07:17:41.487Z,99794.28
2023-01-13T07:20:08.378Z,99793.38
2023-01-13T07:22:34.813Z,99797.69
2023-01-13T07:25:01.271Z,99807.16
2023-01-13T07:27:27.713Z,99808.84
2023-01-13T07:29:54.160Z,99812.34
2023-01-13T07:32:20.583Z,99808.84
2023-01-13T07:34:47.071Z,99820.06
2023-01-13T07:37:13.495Z,99815.75
2023-01-13T07:39:39.956Z,99816.63
2023-01-13T07:42:24.981Z,99822.69
2023-01-13T07:44:51.420Z,99821.00
2023-01-13T07:47:17.839Z,99819.34
2023-01-13T07:49:44.291Z,99818.47
2023-01-13T07:52:10.715Z,99812.44
2023-01-13T07:54:41.061Z,99810.72
2023-01-13T07:57:08.104Z,99801.25
2023-01-13T07:59:34.580Z,99805.63
2023-01-13T08:02:01.238Z,99797.03
2023-01-13T08:04:27.813Z,99800.56
2023-01-13T08:06:54.233Z,99796.38
2023-01-13T08:09:20.711Z,99785.22
2023-01-13T08:12:07.105Z,99787.00
2023-01-13T08:14:33.601Z,99789.63
2023-01-13T08:17:00.105Z,99793.97
2023-01-13T08:19:26.584Z,99785.28
2023-01-13T08:21:53.152Z,99787.84
2023-01-13T08:24:19.619Z,99783.50
2023-01-13T08:26:46.081Z,99788.69
2023-01-13T08:29:14.925Z,99786.06
2023-01-13T08:31:41.695Z,99791.25
2023-01-13T08:34:08.192Z,99793.94
2023-01-13T08:36:34.655Z,99795.63
2023-01-13T08:39:01.151Z,99807.00
2023-01-13T08:41:46.195Z,99813.88
2023-01-13T08:44:12.651Z,99814.66
2023-01-13T08:46:39.116Z,99826.66
2023-01-13T08:49:05.735Z,99822.41
2023-01-13T08:51:32.163Z,99825.09
2023-01-13T08:53:58.628Z,99835.50
2023-01-13T08:56:25.078Z,99837.28
2023-01-13T08:58:51.554Z,99833.06
2023-01-13T09:01:21.842Z,99840.06
2023-01-13T09:03:48.408Z,99846.16
2023-01-13T09:06:14.850Z,99846.34
2023-01-13T09:08:41.335Z,99849.91
2023-01-13T09:11:36.472Z,99846.47
2023-01-13T09:14:03.561Z,99847.41
2023-01-13T09:16:30.149Z,99850.09
2023-01-13T09:18:56.612Z,99860.50
2023-01-13T09:21:23.133Z,99865.75
2023-01-13T09:23:49.615Z,99862.25
2023-01-13T09:26:19.521Z,99856.34
2023-01-13T09:28:46.040Z,99854.78
2023-01-13T09:31:12.544Z,99854.84
2023-01-13T09:33:57.703Z,99849.03
2023-01-13T09:36:24.151Z,99850.06
2023-01-13T09:38:50.814Z,99843.31
2023-01-13T09:41:41.020Z,99846.81
2023-01-13T09:44:13.247Z,99839.91
2023-01-13T09:46:47.181Z,99843.41
2023-01-13T09:49:22.155Z,99832.16
2023-01-13T09:51:57.006Z,99833.06
2023-01-13T09:54:43.839Z,99840.84
2023-01-13T09:57:11.908Z,99836.47
2023-01-13T09:59:38.737Z,99841.63
2023-01-13T10:02:42.757Z,99839.84
2023-01-13T10:05:40.740Z,99840.78
2023-01-13T10:08:13.939Z,99844.22
2023-01-13T10:10:49.221Z,99835.53
2023-01-13T10:13:35.883Z,99852.03
2023-01-13T10:16:11.335Z,99846.81
2023-01-13T10:19:04.142Z,99852.84
2023-01-13T10:21:48.156Z,99845.81
2023-01-13T10:24:14.471Z,99865.69
2023-01-13T10:26:50.960Z,99853.66
2023-01-13T10:29:20.656Z,99853.72
2023-01-13T10:31:47.376Z,99856.34
2023-01-13T10:34:16.740Z,99861.66
2023-01-13T10:37:07.935Z,99863.53
2023-01-13T10:39:48.268Z,99868.81
2023-01-13T10:42:21.933Z,99863.72
2023-01-13T10:44:53.316Z,99860.31
2023-01-13T10:47:28.289Z,99860.44
2023-01-13T10:50:13.062Z,99866.53
2023-01-13T10:52:43.391Z,99860.53
2023-01-13T10:55:30.120Z,99856.22
2023-01-13T10:57:56.789Z,99872.66
2023-01-13T11:00:30.982Z,99882.22
2023-01-13T11:03:14.474Z,99876.13
2023-01-13T11:05:48.185Z,99879.56
2023-01-13T11:08:19.881Z,99884.75
2023-01-13T11:10:48.843Z,99882.16
2023-01-13T11:13:23.991Z,99878.78
2023-01-13T11:15:50.486Z,99877.06
2023-01-13T11:18:22.543Z,99878.88
2023-01-13T11:20:50.484Z,99879.78
2023-01-13T11:23:34.478Z,99874.63
2023-01-13T11:26:05.601Z,99893.72
2023-01-13T11:28:45.313Z,99890.22
2023-01-13T11:31:24.471Z,99887.59
2023-01-13T11:34:00.323Z,99887.53
2023-01-13T11:36:48.234Z,99890.16
2023-01-13T11:39:23.960Z,99890.16
2023-01-13T11:42:18.917Z,99881.47
2023-01-13T11:44:51.532Z,99886.72
2023-01-13T11:47:21.494Z,99884.13
2023-01-13T11:49:48.723Z,99879.84
2023-01-13T11:52:49.101Z,99879.84
2023-01-13T11:55:33.583Z,99878.09
2023-01-13T11:58:24.588Z,99882.38
2023-01-13T12:01:12.626Z,99886.72
2023-01-13T12:03:43.801Z,99877.16
2023-01-13T12:06:35.219Z,99884.03
2023-01-13T12:09:25.767Z,99883.22
2023-01-13T12:12:20.784Z,99879.72
2023-01-13T12:15:07.157Z,99897.06
2023-01-13T12:17:55.764Z,99896.25
2023-01-13T12:20:41.338Z,99902.41
2023-01-13T12:23:15.784Z,99893.88
2023-01-13T12:25:45.708Z,99895.63
2023-01-13T12:28:19.525Z,99890.44
2023-01-13T12:30:50.901Z,99893.94
2023-01-13T12:33:48.435Z,99906.91
2023-01-13T12:36:45.763Z,99898.22
2023-01-13T12:39:47.648Z,99899.94
2023-01-13T12:42:40.745Z,99901.50
2023-01-13T12:45:10.201Z,99899.78
2023-01-13T12:47:41.485Z,99899.84
2023-01-13T12:50:23.672Z,99903.41
2023-01-13T12:53:01.012Z,99906.06
2023-01-13T12:55:29.020Z,99905.22
2023-01-13T12:57:58.126Z,99910.53
2023-01-13T13:00:31.882Z,99905.44
2023-01-13T13:03:19.807Z,99902.91
2023-01-13T13:05:50.027Z,99918.47
2023-01-13T13:08:41.727Z,99917.59
2023-01-13T13:11:33.096Z,99925.31
2023-01-13T13:14:04.158Z,99926.09
2023-01-13T13:16:30.718Z,99929.66
2023-01-13T13:19:36.298Z,99931.44
2023-01-13T13:22:11.908Z,99925.41
2023-01-13T13:24:40.002Z,99934.06
2023-01-13T13:27:40.559Z,99935.84
2023-01-13T13:30:28.239Z,99941.00
2023-01-13T13:33:13.387Z,99934.09
2023-01-13T13:35:52.401Z,99937.53
2023-01-13T13:39:05.609Z,99927.09
2023-01-13T13:41:54.129Z,99933.97
2023-01-13T13:44:50.452Z,99933.88
2023-01-13T13:47:17.426Z,99926.88
2023-01-13T13:49:49.386Z,99919.88
2023-01-13T13:52:21.411Z,99920.69
2023-01-13T13:54:52.103Z,99925.84
2023-01-13T13:57:29.940Z,99914.47
2023-01-13T13:59:58.962Z,99918.69
2023-01-13T14:02:35.789Z,99915.22
2023-01-13T14:05:18.893Z,99941.88
2023-01-13T14:07:47.830Z,99922.03
2023-01-13T14:10:30.207Z,99929.72
2023-01-13T14:12:56.733Z,99921.06
2023-01-13T14:15:31.615Z,99907.94
2023-01-13T14:18:03.370Z,99898.25
2023-01-13T14:20:30.644Z,99911.88
2023-01-13T14:23:01.512Z,99911.81
2023-01-13T14:25:30.456Z,99912.53
2023-01-13T14:27:58.811Z,99904.66
2023-01-13T14:30:27.511Z,99909.75
2023-01-13T14:32:54.245Z,99906.25
2023-01-13T14:35:20.792Z,99919.16
2023-01-13T14:37:49.119Z,99918.09
2023-01-13T14:40:36.192Z,99927.59
2023-01-13T14:43:11.554Z,99923.94
2023-01-13T14:45:38.030Z,99932.56
2023-01-13T14:48:08.271Z,99948.94
2023-01-13T14:50:35.164Z,99948.91
2023-01-13T14:53:01.721Z,99959.19
2023-01-13T14:55:40.382Z,99953.06
2023-01-13T14:58:21.987Z,99960.84
2023-01-13T15:00:49.602Z,99959.94
2023-01-13T15:03:17.791Z,99956.41
2023-01-13T15:05:53.726Z,99961.56
2023-01-13T15:08:30.061Z,99958.84
2023-01-13T15:11:00.596Z,99976.94
2023-01-13T15:13:32.010Z,99962.19
2023-01-13T15:16:00.467Z,99978.53
2023-01-13T15:18:27.132Z,99971.50
2023-01-13T15:20:53.668Z,99984.44
2023-01-13T15:23:20.587Z,99981.84
2023-01-13T15:25:47.970Z,99991.25
2023-01-13T15:28:22.887Z,99987.75
2023-01-13T15:30:50.898Z,99991.13
2023-01-13T15:33:18.947Z,100002.38
2023-01-13T15:35:54.796Z,99997.19
2023-01-13T15:38:23.058Z,100014.41
2023-01-13T15:40:51.398Z,100019.53
2023-01-13T15:43:41.003Z,100016.91
2023-01-13T15:46:34.457Z,100021.94
2023-01-13T15:49:03.514Z,100020.06
2023-01-13T15:51:30.025Z,100021.66
2023-01-13T15:53:56.739Z,100029.38
2023-01-13T15:56:25.248Z,100018.94
2023-01-13T15:58:51.989Z,100026.59
2023-01-13T16:01:18.661Z,100035.03
2023-01-13T16:03:45.242Z,100039.44
2023-01-13T16:06:18.871Z,100044.59
2023-01-13T16:08:45.521Z,100054.06
2023-01-13T16:11:12.325Z,100064.34
2023-01-13T16:13:40.154Z,100072.94
2023-01-13T16:16:16.275Z,100079.88
2023-01-13T16:18:42.858Z,100069.38
2023-01-13T16:21:12.518Z,100071.94
2023-01-13T16:23:39.085Z,100067.47
2023-01-13T16:26:06.703Z,100065.63
2023-01-13T16:28:49.134Z,100070.69
2023-01-13T16:31:26.557Z,100074.94
2023-01-13T16:33:53.479Z,100072.25
2023-01-13T16:36:21.821Z,100073.81
2023-01-13T16:38:50.007Z,100078.91
2023-01-13T16:41:16.576Z,100069.28
2023-01-13T16:43:43.341Z,100078.91
2023-01-13T16:46:27.441Z,100072.75
2023-01-13T16:48:56.440Z,100082.09
2023-01-13T16:51:24.018Z,100084.38
2023-01-13T16:53:50.640Z,100082.50
2023-01-13T16:56:26.960Z,100087.53
2023-01-13T16:58:56.499Z,100091.72
2023-01-13T17:01:31.043Z,100096.72
2023-01-13T17:03:59.198Z,100093.25
2023-01-13T17:06:37.289Z,100103.44
2023-01-13T17:09:07.023Z,100099.09
2023-01-13T17:11:33.952Z,100113.06
2023-01-13T17:14:00.387Z,100102.72
2023-01-13T17:16:33.751Z,100097.56
2023-01-13T17:19:00.211Z,100097.50
2023-01-13T17:21:26.618Z,100094.81
2023-01-13T17:23:53.033Z,100098.22
2023-01-13T17:26:37.150Z,100106.75
2023-01-13T17:29:10.417Z,100121.34
2023-01-13T17:31:36.984Z,100129.06
2023-01-13T17:34:04.401Z,100122.00
2023-01-13T17:36:31.196Z,100118.38
2023-01-13T17:38:58.191Z,100135.53
2023-01-13T17:41:25.198Z,100126.06
2023-01-13T17:43:52.533Z,100137.19
2023-01-13T17:46:19.918Z,100139.81
2023-01-13T17:48:47.032Z,100142.34
2023-01-13T17:51:15.395Z,100144.84
2023-01-13T17:53:42.954Z,100145.72
2023-01-13T17:56:10.307Z,100157.88
2023-01-13T17:58:38.000Z,100146.66
2023-01-13T18:01:09.616Z,100141.53
2023-01-13T18:03:37.512Z,100148.28
2023-01-13T18:06:17.469Z,100161.25
2023-01-13T18:08:43.911Z,100161.13
2023-01-13T18:11:10.400Z,100164.50
2023-01-13T18:13:37.427Z,100169.59
2023-01-13T18:16:10.153Z,100175.56
2023-01-13T18:18:37.575Z,100178.19
2023-01-13T18:21:23.236Z,100190.19
2023-01-13T18:24:08.341Z,100184.13
2023-01-13T18:26:53.531Z,100197.00
2023-01-13T18:29:20.159Z,100202.03
2023-01-13T18:31:46.639Z,100202.03
2023-01-13T18:34:13.083Z,100207.97
2023-01-13T18:36:39.482Z,100213.91
2023-01-13T18:39:05.884Z,100208.78
2023-01-13T18:41:50.935Z,100211.38
2023-01-13T18:44:17.773Z,100209.56
2023-01-13T18:46:44.167Z,100211.16
2023-01-13T18:49:10.609Z,100227.53
2023-01-13T18:51:37.625Z,100230.88
2023-01-13T18:54:04.121Z,100233.47
2023-01-13T18:56:31.111Z,100225.72
2023-01-13T18:58:57.826Z,100234.19
2023-01-13T19:01:26.211Z,100229.03
2023-01-13T19:04:02.921Z,100229.84
2023-01-13T19:06:32.738Z,100233.31
2023-01-13T19:09:08.287Z,100232.44
2023-01-13T19:11:38.653Z,100235.72
2023-01-13T19:14:05.069Z,100238.38
2023-01-13T19:16:31.468Z,100249.47
2023-01-13T19:18:57.936Z,100242.53
2023-01-13T19:21:25.423Z,100244.25
2023-01-13T19:23:55.823Z,100257.09
2023-01-13T19:26:22.303Z,100251.94
2023-01-13T19:28:50.270Z,100264.72
2023-01-13T19:31:20.486Z,100270.75
2023-01-13T19:33:47.109Z,100275.03
2023-01-13T19:36:13.567Z,100278.44
2023-01-13T19:38:40.327Z,100287.94
2023-01-13T19:41:28.223Z,100292.19
2023-01-13T19:44:14.781Z,100297.34
2023-01-13T19:46:41.297Z,100310.13
2023-01-13T19:49:08.272Z,100314.47
2023-01-13T19:51:35.677Z,100312.84
2023-01-13T19:54:02.402Z,100319.66
2023-01-13T19:56:30.705Z,100321.41
2023-01-13T19:58:58.120Z,100322.28
2023-01-13T20:01:31.699Z,100328.38
2023-01-13T20:04:03.082Z,100340.56
2023-01-13T20:06:31.838Z,100335.53
2023-01-13T20:08:59.432Z,100334.75
2023-01-13T20:11:31.216Z,100347.84
2023-01-13T20:13:58.675Z,100352.28
2023-01-13T20:16:25.915Z,100348.00
2023-01-13T20:18:52.486Z,100357.53
2023-01-13T20:21:19.021Z,100354.94
2023-01-13T20:23:49.407Z,100361.72
2023-01-13T20:26:15.888Z,100366.16
2023-01-13T20:28:42.301Z,100374.06
2023-01-13T20:31:13.634Z,100374.19
2023-01-13T20:33:40.269Z,100370.84
2023-01-13T20:36:07.600Z,100376.22
2023-01-13T20:38:38.187Z,100377.91
2023-01-13T20:41:24.776Z,100378.09
2023-01-13T20:43:52.326Z,100389.38
2023-01-13T20:46:20.483Z,100390.25
2023-01-13T20:48:46.988Z,100394.66
2023-01-13T20:51:14.735Z,100396.31
2023-01-13T20:53:41.502Z,100395.47
2023-01-13T20:56:09.084Z,100396.25
2023-01-13T20:58:37.807Z,100394.41
2023-01-13T21:01:04.571Z,100397.00
2023-01-13T21:03:31.071Z,100390.84
2023-01-13T21:05:58.231Z,100397.72
2023-01-13T21:08:24.653Z,100391.44
2023-01-13T21:10:51.069Z,100394.25
2023-01-13T21:13:36.056Z,100390.84
2023-01-13T21:16:02.596Z,100391.72
2023-01-13T21:18:47.709Z,100403.75
2023-01-13T21:21:14.188Z,100395.94
2023-01-13T21:23:42.597Z,100405.47
2023-01-13T21:26:09.972Z,100394.25
2023-01-13T21:28:36.797Z,100397.72
2023-01-13T21:31:05.302Z,100388.19
2023-01-13T21:33:31.708Z,100380.50
2023-01-13T21:35:58.217Z,100395.13
2023-01-13T21:38:26.663Z,100392.66
2023-01-13T21:41:02.077Z,100398.66
2023-01-13T21:43:51.620Z,100403.81
2023-01-13T21:46:37.440Z,100408.94
2023-01-13T21:49:04.482Z,100415.66
2023-01-13T21:51:31.583Z,100418.31
2023-01-13T21:53:58.034Z,100422.47
2023-01-13T21:56:25.421Z,100430.22
2023-01-13T21:58:52.080Z,100431.91
2023-01-13T22:01:20.539Z,100424.94
2023-01-13T22:04:05.730Z,100436.13
2023-01-13T22:06:32.130Z,100438.66
2023-01-13T22:09:01.490Z,100444.66
2023-01-13T22:11:28.653Z,100446.28
2023-01-13T22:14:08.644Z,100452.22
2023-01-13T22:16:41.511Z,100454.88
2023-01-13T22:19:09.227Z,100454.81
2023-01-13T22:21:35.787Z,100460.03
2023-01-13T22:24:02.246Z,100457.38
2023-01-13T22:26:28.863Z,100462.41
2023-01-13T22:28:55.275Z,100461.69
2023-01-13T22:31:23.650Z,100464.25
2023-01-13T22:33:54.506Z,100464.31
2023-01-13T22:36:21.502Z,100471.91
2023-01-13T22:38:47.948Z,100483.22
2023-01-13T22:41:14.476Z,100487.34
2023-01-13T22:43:40.894Z,100494.44
2023-01-13T22:46:10.173Z,100487.63
2023-01-13T22:48:36.958Z,100484.22
2023-01-13T22:51:08.089Z,100483.41
2023-01-13T22:53:34.949Z,100498.09
2023-01-13T22:56:01.754Z,100505.91
2023-01-13T22:58:28.497Z,100517.06
2023-01-13T23:00:55.998Z,100506.78
2023-01-13T23:03:22.907Z,100513.59
2023-01-13T23:05:55.817Z,100529.22
2023-01-13T23:08:22.231Z,100527.44
2023-01-13T23:10:48.658Z,100525.69
2023-01-13T23:13:15.062Z,100536.91
2023-01-13T23:15:41.505Z,100530.97
2023-01-13T23:18:08.082Z,100532.63
2023-01-13T23:20:35.488Z,100530.97
2023-01-13T23:23:01.878Z,100530.97
2023-01-13T23:25:28.306Z,100541.19
2023-01-13T23:27:55.610Z,100537.66
2023-01-13T23:30:22.029Z,100535.91
2023-01-13T23:32:48.439Z,100540.25
2023-01-13T23:35:14.849Z,100538.59
2023-01-13T23:37:41.295Z,100536.03
2023-01-13T23:40:09.646Z,100532.63
2023-01-13T23:42:36.077Z,100534.31
2023-01-13T23:45:02.514Z,100541.19
2023-01-13T23:47:28.960Z,100548.00
2023-01-13T23:49:55.413Z,100539.44
2023-01-13T23:52:21.836Z,100539.56
2023-01-13T23:54:48.313Z,100541.31
2023-01-13T23:57:14.755Z,100541.31
2023-01-13T23:59:41.161Z,100544.72
